createdAt,value
2022-09-10T00:01:46.466Z,12.93
2022-09-10T00:04:17.557Z,15.00
2022-09-10T00:06:47.030Z,11.90
2022-09-10T00:09:17.165Z,13.37
2022-09-10T00:14:18.186Z,9.80
2022-09-10T00:16:49.257Z,11.35
2022-09-10T00:19:19.492Z,10.52
2022-09-10T00:21:50.131Z,9.45
2022-09-10T00:24:19.552Z,9.18
2022-09-10T00:26:48.787Z,10.85
2022-09-10T00:29:18.546Z,12.43
2022-09-10T00:34:18.801Z,9.80
2022-09-10T00:36:48.296Z,11.40
2022-09-10T00:39:19.203Z,11.03
2022-09-10T00:41:50.286Z,12.38
2022-09-10T00:44:57.053Z,12.77
2022-09-10T00:47:32.264Z,12.93
2022-09-10T00:50:07.639Z,14.32
2022-09-10T00:52:39.950Z,16.58
2022-09-10T00:55:11.100Z,36.78
2022-09-10T00:57:41.353Z,14.13
2022-09-10T01:00:13.720Z,12.40
2022-09-10T01:02:46.094Z,11.40
2022-09-10T01:05:17.421Z,13.38
2022-09-10T01:07:48.161Z,12.93
2022-09-10T01:10:22.720Z,15.68
2022-09-10T01:13:19.352Z,14.60
2022-09-10T01:15:57.008Z,15.40
2022-09-10T01:18:36.498Z,13.80
2022-09-10T01:21:15.486Z,14.75
2022-09-10T01:24:26.790Z,11.85
2022-09-10T01:27:36.554Z,15.77
2022-09-10T01:30:12.978Z,12.45
2022-09-10T01:32:59.700Z,13.68
2022-09-10T01:35:40.279Z,13.18
2022-09-10T01:38:13.461Z,11.50
2022-09-10T01:40:43.956Z,13.07
2022-09-10T01:43:18.950Z,15.32
2022-09-10T01:46:04.654Z,13.65
2022-09-10T01:48:59.837Z,13.05
2022-09-10T01:51:42.563Z,13.05
2022-09-10T01:54:29.258Z,12.77
2022-09-10T01:57:11.694Z,17.05
2022-09-10T01:59:52.048Z,19.17
2022-09-10T02:02:25.107Z,16.67
2022-09-10T02:04:56.455Z,13.55
2022-09-10T02:07:27.744Z,15.15
2022-09-10T02:09:57.729Z,15.07
2022-09-10T02:12:29.091Z,14.95
2022-09-10T02:15:11.606Z,14.88
2022-09-10T02:17:54.136Z,12.65
2022-09-10T02:20:24.253Z,12.65
2022-09-10T02:22:58.664Z,14.85
2022-09-10T02:25:33.894Z,13.95
2022-09-10T02:28:05.650Z,15.27
2022-09-10T02:30:36.875Z,13.38
2022-09-10T02:33:06.364Z,14.35
2022-09-10T02:35:35.693Z,14.00
2022-09-10T02:38:05.871Z,15.18
2022-09-10T02:40:35.544Z,13.45
2022-09-10T02:43:05.798Z,11.75
2022-09-10T02:45:39.144Z,13.13
2022-09-10T02:48:08.347Z,14.18
2022-09-10T02:53:08.119Z,15.60
2022-09-10T02:55:37.367Z,14.85
2022-09-10T02:58:07.097Z,13.00
2022-09-10T03:00:38.416Z,13.10
2022-09-10T03:03:08.799Z,15.25
2022-09-10T03:05:38.650Z,12.25
2022-09-10T03:08:09.121Z,13.80
2022-09-10T03:10:39.708Z,14.05
2022-09-10T03:13:09.154Z,12.30
2022-09-10T03:15:40.764Z,13.73
2022-09-10T03:18:10.346Z,12.23
2022-09-10T03:20:41.729Z,13.17
2022-09-10T03:23:12.321Z,12.43
2022-09-10T03:25:42.140Z,11.98
2022-09-10T03:28:12.273Z,15.93
2022-09-10T03:30:43.105Z,12.98
2022-09-10T03:33:13.859Z,10.07
2022-09-10T03:35:43.885Z,13.43
2022-09-10T03:38:13.873Z,13.25
2022-09-10T03:40:43.504Z,11.95
2022-09-10T03:43:13.075Z,11.95
2022-09-10T03:45:44.141Z,12.70
2022-09-10T03:48:13.669Z,13.77
2022-09-10T03:50:44.240Z,11.38
2022-09-10T03:53:13.845Z,13.30
2022-09-10T03:55:45.366Z,13.18
2022-09-10T03:58:15.781Z,13.63
2022-09-10T04:00:47.105Z,13.18
2022-09-10T04:03:16.746Z,15.32
2022-09-10T04:05:46.259Z,15.18
2022-09-10T04:08:16.753Z,13.88
2022-09-10T04:10:46.160Z,15.65
2022-09-10T04:13:15.791Z,16.90
2022-09-10T04:15:47.217Z,15.48
2022-09-10T04:18:16.748Z,13.38
2022-09-10T04:20:49.457Z,15.20
2022-09-10T04:23:18.917Z,13.60
2022-09-10T04:25:49.363Z,15.20
2022-09-10T04:28:18.657Z,19.88
2022-09-10T04:30:52.395Z,18.65
2022-09-10T04:33:25.053Z,16.90
2022-09-10T04:35:55.216Z,14.98
2022-09-10T04:38:25.815Z,16.70
2022-09-10T04:40:55.742Z,15.35
2022-09-10T04:43:26.691Z,15.73
2022-09-10T04:45:59.218Z,15.77
2022-09-10T04:48:28.818Z,17.98
2022-09-10T04:51:15.837Z,13.50
2022-09-10T04:53:47.951Z,16.37
2022-09-10T04:56:18.139Z,16.83
2022-09-10T04:58:48.466Z,16.15
2022-09-10T05:01:19.886Z,16.85
2022-09-10T05:03:53.845Z,13.85
2022-09-10T05:06:23.443Z,16.17
2022-09-10T05:08:53.540Z,17.00
2022-09-10T05:11:23.755Z,15.32
2022-09-10T05:13:54.091Z,15.48
2022-09-10T05:16:27.476Z,13.88
2022-09-10T05:18:57.174Z,16.73
2022-09-10T05:21:29.203Z,14.07
2022-09-10T05:23:58.464Z,14.20
2022-09-10T05:26:28.894Z,17.48
2022-09-10T05:29:00.539Z,15.10
2022-09-10T05:31:31.693Z,13.93
2022-09-10T05:34:01.251Z,13.40
2022-09-10T05:36:33.234Z,13.38
2022-09-10T05:39:03.682Z,14.25
2022-09-10T05:41:37.733Z,12.43
2022-09-10T05:44:07.311Z,11.77
2022-09-10T05:46:37.991Z,12.45
2022-09-10T05:49:13.346Z,12.85
2022-09-10T05:51:44.862Z,10.80
2022-09-10T05:54:14.317Z,11.70
2022-09-10T05:56:43.668Z,13.77
2022-09-10T05:59:12.935Z,11.80
2022-09-10T06:01:51.501Z,12.35
2022-09-10T06:04:22.712Z,12.98
2022-09-10T06:06:52.404Z,11.52
2022-09-10T06:09:21.736Z,11.95
2022-09-10T06:12:06.624Z,15.13
2022-09-10T06:14:38.765Z,11.60
2022-09-10T06:17:09.674Z,11.85
2022-09-10T06:19:44.403Z,11.18
2022-09-10T06:22:14.539Z,11.95
2022-09-10T06:24:49.790Z,12.10
2022-09-10T06:27:23.267Z,11.02
2022-09-10T06:29:53.832Z,14.13
2022-09-10T06:32:24.870Z,12.02
2022-09-10T06:34:54.155Z,12.15
2022-09-10T06:37:24.516Z,12.80
2022-09-10T06:39:53.911Z,12.57
2022-09-10T06:42:23.896Z,14.20
2022-09-10T06:45:12.172Z,12.45
2022-09-10T06:48:37.556Z,14.23
2022-09-10T06:50:59.876Z,11.65
2022-09-10T06:53:36.553Z,12.55
2022-09-10T06:56:08.357Z,11.50
2022-09-10T06:58:39.232Z,13.23
2022-09-10T07:01:13.020Z,13.75
2022-09-10T07:03:45.625Z,14.05
2022-09-10T07:06:17.722Z,18.00
2022-09-10T07:08:50.445Z,14.80
2022-09-10T07:11:19.877Z,15.60
2022-09-10T07:13:53.266Z,15.35
2022-09-10T07:16:28.249Z,15.43
2022-09-10T07:19:00.918Z,12.80
2022-09-10T07:21:50.246Z,14.50
2022-09-10T07:24:21.418Z,12.13
2022-09-10T07:27:11.188Z,11.32
2022-09-10T07:29:43.742Z,10.85
2022-09-10T07:32:17.357Z,12.57
2022-09-10T07:34:48.370Z,12.27
2022-09-10T07:37:20.039Z,13.07
2022-09-10T07:39:49.581Z,12.93
2022-09-10T07:42:19.578Z,12.23
2022-09-10T07:44:49.195Z,12.35
2022-09-10T07:47:18.893Z,13.43
2022-09-10T07:49:50.006Z,14.32
2022-09-10T07:52:19.399Z,13.63
2022-09-10T07:54:52.860Z,11.90
2022-09-10T07:59:53.809Z,56.20
2022-09-10T08:02:26.136Z,49.15
2022-09-10T08:05:04.548Z,21.60
2022-09-10T08:07:36.073Z,20.42
2022-09-10T08:10:07.596Z,16.93
2022-09-10T08:12:37.695Z,13.48
2022-09-10T08:15:08.462Z,22.75
2022-09-10T08:17:38.316Z,16.23
2022-09-10T08:22:42.399Z,13.65
2022-09-10T08:25:12.194Z,13.85
2022-09-10T08:27:43.033Z,14.88
2022-09-10T08:30:15.082Z,17.83
2022-09-10T08:32:44.842Z,15.10
2022-09-10T08:35:17.687Z,19.90
2022-09-10T08:37:47.656Z,18.10
2022-09-10T08:40:18.637Z,30.77
2022-09-10T08:42:51.273Z,19.38
2022-09-10T08:45:25.719Z,23.67
2022-09-10T08:48:02.317Z,14.93
2022-09-10T08:50:41.354Z,15.23
2022-09-10T08:53:27.444Z,16.77
2022-09-10T08:56:06.366Z,19.83
2022-09-10T08:58:43.784Z,19.13
2022-09-10T09:01:19.488Z,21.75
2022-09-10T09:03:50.262Z,24.27
2022-09-10T09:06:30.308Z,21.55
2022-09-10T09:09:02.161Z,20.33
2022-09-10T09:11:48.445Z,20.20
2022-09-10T09:14:42.330Z,16.95
2022-09-10T09:17:31.240Z,16.73
2022-09-10T09:20:12.544Z,19.55
2022-09-10T09:22:53.122Z,17.63
2022-09-10T09:25:34.142Z,16.30
2022-09-10T09:28:13.339Z,16.02
2022-09-10T09:30:49.491Z,15.25
2022-09-10T09:33:25.115Z,14.48
2022-09-10T09:36:00.227Z,14.85
2022-09-10T09:38:37.313Z,16.13
2022-09-10T09:41:16.197Z,13.77
2022-09-10T09:43:55.787Z,15.80
2022-09-10T09:46:27.024Z,16.95
2022-09-10T09:49:03.177Z,14.98
2022-09-10T09:51:37.174Z,17.23
2022-09-10T09:54:46.756Z,15.50
2022-09-10T09:57:02.987Z,15.00
2022-09-10T09:59:34.798Z,17.23
2022-09-10T10:02:12.607Z,16.05
2022-09-10T10:04:54.054Z,21.15
2022-09-10T10:07:31.482Z,16.38
2022-09-10T10:10:04.269Z,16.08
2022-09-10T10:12:34.401Z,16.92
2022-09-10T10:15:04.088Z,17.90
2022-09-10T10:17:38.785Z,17.00
2022-09-10T10:20:11.650Z,20.45
2022-09-10T10:22:41.942Z,18.25
2022-09-10T10:25:36.278Z,18.92
2022-09-10T10:28:13.976Z,20.77
2022-09-10T10:30:44.696Z,20.52
2022-09-10T10:33:22.157Z,20.17
2022-09-10T10:35:56.509Z,20.75
2022-09-10T10:38:32.843Z,15.40
2022-09-10T10:41:29.723Z,15.98
2022-09-10T10:44:09.502Z,18.70
2022-09-10T10:46:49.794Z,19.33
2022-09-10T10:52:04.007Z,21.70
2022-09-10T10:57:21.859Z,15.50
2022-09-10T10:59:57.469Z,16.35
2022-09-10T11:02:39.506Z,21.48
2022-09-10T11:05:21.163Z,21.27
2022-09-10T11:07:52.776Z,22.70
2022-09-10T11:10:26.997Z,20.85
2022-09-10T11:13:04.821Z,18.45
2022-09-10T11:15:39.069Z,20.20
2022-09-10T11:18:16.541Z,17.10
2022-09-10T11:20:58.238Z,17.42
2022-09-10T11:23:32.981Z,20.92
2022-09-10T11:26:09.229Z,16.70
2022-09-10T11:28:44.427Z,18.17
2022-09-10T11:31:25.251Z,18.10
2022-09-10T11:34:01.659Z,18.08
2022-09-10T11:36:35.126Z,19.63
2022-09-10T11:39:17.570Z,16.75
2022-09-10T11:41:50.271Z,15.63
2022-09-10T11:44:36.776Z,21.00
2022-09-10T11:47:15.573Z,20.05
2022-09-10T11:49:49.965Z,19.77
2022-09-10T11:52:21.207Z,18.38
2022-09-10T11:54:51.577Z,17.02
2022-09-10T12:00:11.882Z,15.70
2022-09-10T12:03:30.836Z,17.20
2022-09-10T12:06:08.214Z,19.75
2022-09-10T12:09:01.686Z,16.42
2022-09-10T12:11:39.209Z,18.35
2022-09-10T12:14:09.561Z,20.00
2022-09-10T12:16:46.746Z,19.17
2022-09-10T12:19:24.489Z,18.75
2022-09-10T12:21:57.186Z,15.40
2022-09-10T12:24:31.588Z,16.13
2022-09-10T12:27:02.258Z,17.23
2022-09-10T12:29:34.626Z,17.13
2022-09-10T12:32:29.753Z,13.82
2022-09-10T12:35:47.410Z,16.02
2022-09-10T12:38:55.405Z,13.70
2022-09-10T12:41:57.141Z,18.92
2022-09-10T12:44:56.298Z,15.85
2022-09-10T12:47:52.562Z,14.05
2022-09-10T12:50:46.315Z,15.52
2022-09-10T12:53:53.906Z,15.70
2022-09-10T12:56:57.578Z,13.52
2022-09-10T13:00:01.995Z,16.50
2022-09-10T13:02:36.453Z,15.25
2022-09-10T13:05:18.788Z,14.57
2022-09-10T13:07:51.562Z,15.02
2022-09-10T13:10:24.058Z,13.52
2022-09-10T13:12:56.260Z,13.27
2022-09-10T13:15:27.477Z,13.55
2022-09-10T13:18:25.777Z,14.38
2022-09-10T13:20:55.183Z,14.18
2022-09-10T13:23:41.148Z,14.45
2022-09-10T13:26:48.418Z,16.10
2022-09-10T13:29:34.719Z,13.27
2022-09-10T13:32:14.171Z,13.48
2022-09-10T13:35:27.419Z,11.93
2022-09-10T13:38:37.979Z,14.52
2022-09-10T13:41:49.046Z,17.20
2022-09-10T13:44:32.886Z,13.88
2022-09-10T13:47:10.591Z,14.75
2022-09-10T13:49:49.044Z,13.70
2022-09-10T13:52:25.485Z,15.02
2022-09-10T13:54:57.433Z,14.35
2022-09-10T13:57:30.978Z,17.75
2022-09-10T14:00:08.025Z,15.98
2022-09-10T14:02:44.734Z,15.75
2022-09-10T14:05:31.081Z,16.00
2022-09-10T14:08:06.361Z,17.95
2022-09-10T14:10:50.697Z,13.88
2022-09-10T14:13:24.317Z,15.43
2022-09-10T14:15:55.890Z,13.18
2022-09-10T14:18:31.953Z,13.73
2022-09-10T14:21:01.989Z,15.98
2022-09-10T14:23:32.976Z,12.80
2022-09-10T14:26:13.961Z,15.18
2022-09-10T14:28:58.928Z,17.10
2022-09-10T14:31:34.758Z,15.25
2022-09-10T14:34:27.418Z,14.43
2022-09-10T14:36:58.989Z,13.88
2022-09-10T14:39:30.344Z,13.43
2022-09-10T14:42:24.432Z,14.20
2022-09-10T14:44:54.349Z,13.57
2022-09-10T14:47:33.571Z,16.80
2022-09-10T14:50:27.858Z,16.92
2022-09-10T14:52:57.073Z,17.60
2022-09-10T14:55:31.067Z,15.93
2022-09-10T14:58:01.224Z,16.05
2022-09-10T15:00:31.401Z,16.83
2022-09-10T15:03:00.704Z,18.17
2022-09-10T15:05:30.833Z,16.85
2022-09-10T15:08:00.427Z,14.82
2022-09-10T15:10:31.150Z,17.45
2022-09-10T15:13:01.230Z,16.38
2022-09-10T15:15:31.113Z,16.13
2022-09-10T15:18:00.409Z,14.50
2022-09-10T15:20:29.712Z,14.60
2022-09-10T15:22:59.198Z,17.90
2022-09-10T15:25:38.448Z,17.00
2022-09-10T15:28:08.645Z,18.88
2022-09-10T15:30:37.938Z,19.58
2022-09-10T15:33:08.182Z,24.17
2022-09-10T15:35:39.653Z,19.20
2022-09-10T15:38:13.762Z,17.10
2022-09-10T15:40:44.861Z,16.85
2022-09-10T15:43:14.094Z,16.08
2022-09-10T15:45:43.420Z,18.17
2022-09-10T15:48:12.910Z,16.13
2022-09-10T15:50:43.403Z,17.10
2022-09-10T15:53:12.616Z,16.58
2022-09-10T15:55:44.178Z,15.23
2022-09-10T15:58:13.467Z,15.55
2022-09-10T16:00:42.973Z,15.15
2022-09-10T16:03:12.272Z,17.17
2022-09-10T16:05:41.644Z,14.80
2022-09-10T16:08:11.095Z,14.30
2022-09-10T16:10:41.057Z,13.48
2022-09-10T16:13:11.721Z,14.93
2022-09-10T16:15:41.225Z,16.50
2022-09-10T16:18:11.045Z,16.70
2022-09-10T16:20:40.247Z,19.58
2022-09-10T16:23:09.793Z,14.90
2022-09-10T16:25:39.377Z,20.30
2022-09-10T16:28:10.049Z,25.95
2022-09-10T16:30:40.169Z,21.13
2022-09-10T16:33:09.825Z,19.00
2022-09-10T16:35:39.068Z,16.73
2022-09-10T16:38:08.800Z,17.52
2022-09-10T16:40:38.146Z,17.23
2022-09-10T16:43:07.671Z,15.90
2022-09-10T16:45:38.659Z,18.88
2022-09-10T16:48:08.257Z,19.80
2022-09-10T16:50:37.663Z,17.70
2022-09-10T16:53:11.415Z,18.60
2022-09-10T16:55:41.308Z,17.67
2022-09-10T16:58:11.316Z,20.08
2022-09-10T17:00:42.782Z,17.42
2022-09-10T17:03:12.376Z,16.83
2022-09-10T17:05:43.130Z,19.98
2022-09-10T17:08:12.413Z,22.55
2022-09-10T17:10:41.835Z,19.35
2022-09-10T17:13:11.336Z,23.48
2022-09-10T17:15:43.159Z,22.33
2022-09-10T17:18:13.356Z,22.45
2022-09-10T17:20:43.145Z,23.75
2022-09-10T17:23:13.459Z,24.92
2022-09-10T17:25:43.005Z,25.80
2022-09-10T17:28:12.893Z,24.25
2022-09-10T17:30:43.462Z,26.63
2022-09-10T17:33:12.899Z,22.85
2022-09-10T17:35:42.217Z,25.93
2022-09-10T17:38:11.396Z,26.13
2022-09-10T17:40:40.779Z,23.90
2022-09-10T17:43:10.083Z,24.83
2022-09-10T17:45:39.487Z,22.47
2022-09-10T17:48:10.314Z,23.15
2022-09-10T17:50:46.189Z,22.98
2022-09-10T17:53:15.997Z,21.35
2022-09-10T17:55:46.405Z,22.35
2022-09-10T17:58:16.827Z,19.65
2022-09-10T18:00:48.712Z,22.83
2022-09-10T18:03:19.474Z,21.85
2022-09-10T18:05:48.975Z,18.25
2022-09-10T18:08:19.225Z,19.23
2022-09-10T18:10:49.805Z,19.27
2022-09-10T18:13:23.242Z,18.80
2022-09-10T18:15:52.916Z,21.40
2022-09-10T18:18:23.820Z,23.85
2022-09-10T18:20:53.049Z,28.42
2022-09-10T18:23:22.452Z,20.42
2022-09-10T18:25:52.652Z,25.52
2022-09-10T18:30:51.020Z,29.10
2022-09-10T18:33:20.493Z,33.17
2022-09-10T18:35:51.105Z,32.00
2022-09-10T18:38:20.874Z,29.83
2022-09-10T18:40:50.440Z,31.63
2022-09-10T18:43:20.089Z,29.35
2022-09-10T18:45:50.366Z,27.92
2022-09-10T18:48:20.371Z,25.30
2022-09-10T18:50:51.018Z,25.27
2022-09-10T18:53:20.758Z,22.08
2022-09-10T18:55:50.214Z,21.00
2022-09-10T18:58:20.643Z,24.15
2022-09-10T19:00:49.903Z,20.23
2022-09-10T19:03:19.810Z,25.27
2022-09-10T19:05:49.672Z,21.60
2022-09-10T19:08:20.777Z,20.58
2022-09-10T19:10:50.985Z,24.33
2022-09-10T19:13:22.608Z,23.75
2022-09-10T19:15:56.979Z,18.90
2022-09-10T19:18:27.074Z,21.08
2022-09-10T19:20:56.641Z,22.23
2022-09-10T19:23:27.262Z,19.92
2022-09-10T19:25:58.891Z,25.80
2022-09-10T19:28:33.724Z,19.45
2022-09-10T19:31:04.892Z,21.05
2022-09-10T19:33:36.266Z,29.38
2022-09-10T19:36:06.753Z,24.77
2022-09-10T19:38:38.424Z,30.52
2022-09-10T19:41:09.778Z,27.02
2022-09-10T19:43:40.251Z,30.00
2022-09-10T19:46:11.612Z,23.05
2022-09-10T19:48:41.264Z,23.42
2022-09-10T19:51:15.189Z,31.45
2022-09-10T19:53:47.041Z,26.63
2022-09-10T19:56:20.638Z,30.30
2022-09-10T19:58:52.533Z,23.98
2022-09-10T20:01:24.917Z,27.77
2022-09-10T20:03:56.127Z,25.17
2022-09-10T20:06:26.558Z,31.77
2022-09-10T20:08:58.455Z,28.67
2022-09-10T20:11:31.395Z,30.80
2022-09-10T20:14:02.801Z,31.45
2022-09-10T20:16:32.382Z,30.60
2022-09-10T20:19:04.868Z,29.10
2022-09-10T20:21:35.184Z,33.13
2022-09-10T20:26:41.168Z,26.98
2022-09-10T20:29:13.307Z,28.08
2022-09-10T20:31:43.580Z,27.77
2022-09-10T20:34:16.228Z,26.42
2022-09-10T20:36:46.108Z,27.50
2022-09-10T20:41:48.264Z,29.70
2022-09-10T20:46:47.416Z,26.40
2022-09-10T20:49:17.469Z,27.48
2022-09-10T20:51:47.292Z,31.27
2022-09-10T20:54:19.457Z,29.48
2022-09-10T20:56:49.172Z,32.50
2022-09-10T20:59:19.569Z,26.42
2022-09-10T21:02:32.069Z,26.15
2022-09-10T21:05:07.320Z,30.58
2022-09-10T21:07:37.307Z,27.10
2022-09-10T21:10:08.881Z,32.93
2022-09-10T21:12:38.344Z,24.90
2022-09-10T21:15:08.473Z,24.83
2022-09-10T21:20:08.440Z,27.45
2022-09-10T21:22:37.710Z,27.67
2022-09-10T21:25:09.543Z,26.33
2022-09-10T21:27:38.975Z,26.08
2022-09-10T21:30:09.233Z,29.53
2022-09-10T21:32:38.489Z,26.33
2022-09-10T21:35:08.928Z,29.02
2022-09-10T21:37:38.468Z,28.40
2022-09-10T21:40:10.585Z,26.57
2022-09-10T21:42:40.106Z,27.17
2022-09-10T21:45:10.615Z,27.03
2022-09-10T21:47:39.822Z,25.52
2022-09-10T21:50:09.910Z,23.17
2022-09-10T21:52:40.812Z,24.38
2022-09-10T21:55:12.082Z,20.65
2022-09-10T21:57:41.445Z,22.20
2022-09-10T22:00:14.945Z,20.77
2022-09-10T22:02:44.979Z,23.13
2022-09-10T22:05:14.473Z,22.05
2022-09-10T22:07:43.653Z,22.50
2022-09-10T22:10:14.609Z,22.27
2022-09-10T22:12:43.755Z,24.90
2022-09-10T22:15:13.443Z,21.38
2022-09-10T22:17:44.140Z,23.92
2022-09-10T22:20:13.333Z,22.88
2022-09-10T22:22:44.230Z,20.65
2022-09-10T22:25:14.879Z,24.15
2022-09-10T22:27:44.298Z,21.58
2022-09-10T22:30:13.935Z,23.45
2022-09-10T22:32:43.135Z,22.50
2022-09-10T22:35:12.613Z,22.27
2022-09-10T22:37:41.818Z,22.23
2022-09-10T22:40:11.808Z,26.05
2022-09-10T22:42:42.740Z,24.55
2022-09-10T22:45:12.506Z,28.00
2022-09-10T22:47:41.782Z,28.20
2022-09-10T22:50:12.440Z,23.88
2022-09-10T22:52:43.698Z,28.42
2022-09-10T22:55:13.584Z,24.15
2022-09-10T22:57:44.245Z,25.77
2022-09-10T23:00:15.125Z,28.20
2022-09-10T23:02:46.342Z,27.35
2022-09-10T23:05:15.916Z,29.05
2022-09-10T23:07:45.077Z,27.40
2022-09-10T23:10:14.283Z,28.15
2022-09-10T23:12:45.197Z,30.00
2022-09-10T23:15:14.418Z,32.45
2022-09-10T23:17:43.868Z,32.60
2022-09-10T23:20:13.397Z,30.58
2022-09-10T23:22:42.635Z,25.63
2022-09-10T23:25:11.863Z,24.30
2022-09-10T23:27:41.346Z,17.73
2022-09-10T23:30:13.626Z,22.55
2022-09-10T23:32:43.137Z,21.42
2022-09-10T23:35:12.666Z,19.23
2022-09-10T23:37:41.920Z,19.75
2022-09-10T23:40:13.792Z,19.73
2022-09-10T23:42:42.970Z,23.35
2022-09-10T23:45:14.086Z,18.95
2022-09-10T23:47:43.303Z,25.20
2022-09-10T23:50:12.699Z,21.10
2022-09-10T23:52:42.112Z,23.77
2022-09-10T23:55:11.471Z,23.67
2022-09-10T23:57:40.721Z,31.42
